HSSSFALA

Guest
Details From HSSS - KHARTOUM
To FALA - Lanseria
Flight Number -
Tags decoded
Created
Modified
Stats Distance 2,509 nm / 4,646 km
Max Altitude 0 ft / 0 m
Waypoints 2
Social Downloads 0
Likes 0
Share VATSIM

Download

Looking for another format? Having issues loading an existing format? Contact us
Advertisement - Login to hide

Notes

Requested: HSSS FALA

Route

HSSS FALA

ID Type Via Altitude Latitude Longitude Leg Dist Tot Dist Heading (true) Name
O HSSS APT - 0 ft / 0 m 15.58950˚ 32.55316˚ - 0 nm - KHARTOUM
O FALA APT - 0 ft / 0 m -25.94005˚ 27.92536˚ 2508 nm 2508 nm 186° / 187° Lanseria

Altitude Profile

Advertisement - Login to hide

Weather


0- 5 10 15 20 25 30 35+ Temperature / ° C

Clouds and Precipitation
Forecast for 2018-05-27 18:00 UTC. Updated 28 minutes ago

Ground ~20,000 ft ~40,000 ft Winds

HSSS

Details ICAO HSSS (KRT)
Name KHARTOUM
Region Sudan and South Sudan
Timezone Africa/Khartoum (UTC+2.0)
Stats Elevation 1,265 ft / 386 m (AMSL)
Location 15.589499° 32.553159°
Runways 1
Magnetic Variation 3.419° E

METAR

HSSS 271730Z 16012KT CAVOK 36/11 Q1008 NOSIG

Decode

TAF

Not found

Departure Runways

ID Width Length Bearing (true) Bearing (mag) Surface Threshold Offset Overrun Length
18 148 ft / 45 m 9,822 ft / 2,994 m 179.48° 176.06° Asphalt 0 ft / 0 m 220 ft / 67 m
36 148 ft / 45 m 9,822 ft / 2,994 m 359.48° 356.06° Asphalt 0 ft / 0 m 215 ft / 66 m

FALA

Details ICAO FALA (HLA)
Name Lanseria
Region South Africa
Timezone Africa/Johannesburg (UTC+2.0)
Stats Elevation 4,517 ft / 1,377 m (AMSL)
Location -25.940047° 27.925358°
Runways 2
Magnetic Variation 18.433° W

METAR

FALA 271700Z 00000KT CAVOK 18/05 Q1028 NOSIG

Decode

TAF

Not found

Destination Runways

ID Width Length Bearing (true) Bearing (mag) Surface Threshold Offset Overrun Length
06L 98 ft / 30 m 9,995 ft / 3,047 m 47.22° 65.65° Asphalt 0 ft / 0 m 0 ft / 0 m
06R 75 ft / 23 m 6,945 ft / 2,117 m 47.22° 65.65° Asphalt 1,000 ft / 305 m 0 ft / 0 m
24L 75 ft / 23 m 6,945 ft / 2,117 m 227.22° 245.65° Asphalt 164 ft / 50 m 0 ft / 0 m
24R 98 ft / 30 m 9,995 ft / 3,047 m 227.22° 245.65° Asphalt 432 ft / 132 m 0 ft / 0 m

Approach Navaids

Runway Type Ident Frequency Range Bearing (true) Bearing (mag) Slope Elevation
06L Localiser LAI 110.90 MHz 18 nm / 33 km 47.23° 65.66° - 4,518 ft / 1,377 m (AMSL)
06L Glidescope LAI 110.90 MHz 10 nm / 19 km 47.22° 65.65° 3.00° 4,518 ft / 1,377 m (AMSL)

Popular Alternatives